createdAt,value
2022-08-26T00:06:31.000Z,984.70
2022-08-26T00:11:25.000Z,984.69
2022-08-26T00:16:20.000Z,984.79
2022-08-26T00:21:14.000Z,984.79
2022-08-26T00:26:09.000Z,984.84
2022-08-26T00:31:03.000Z,984.83
2022-08-26T00:35:57.000Z,984.80
2022-08-26T00:40:51.000Z,984.78
2022-08-26T00:45:46.000Z,984.71
2022-08-26T00:50:41.000Z,984.61
2022-08-26T00:55:38.000Z,984.59
2022-08-26T01:00:29.000Z,984.52
2022-08-26T01:05:24.000Z,984.65
2022-08-26T01:10:18.000Z,984.83
2022-08-26T01:15:12.000Z,984.87
2022-08-26T01:20:07.000Z,984.88
2022-08-26T01:25:01.000Z,985.00
2022-08-26T01:29:55.000Z,984.98
2022-08-26T01:34:50.000Z,985.11
2022-08-26T01:39:45.000Z,985.11
2022-08-26T01:44:40.000Z,985.17
2022-08-26T01:49:35.000Z,985.31
2022-08-26T01:54:30.000Z,985.33
2022-08-26T01:59:25.000Z,985.33
2022-08-26T02:04:20.000Z,985.36
2022-08-26T02:09:13.000Z,985.32
2022-08-26T02:14:08.000Z,985.33
2022-08-26T02:19:03.000Z,985.49
2022-08-26T02:23:55.000Z,985.52
2022-08-26T02:28:50.000Z,985.52
2022-08-26T02:33:43.000Z,985.47
2022-08-26T02:38:38.000Z,985.52
2022-08-26T02:43:31.000Z,985.50
2022-08-26T02:48:26.000Z,985.63
2022-08-26T02:53:21.000Z,985.54
2022-08-26T02:58:15.000Z,985.57
2022-08-26T03:03:10.000Z,985.54
2022-08-26T03:08:06.000Z,985.44
2022-08-26T03:13:00.000Z,985.40
2022-08-26T03:17:54.000Z,985.51
2022-08-26T03:22:49.000Z,985.50
2022-08-26T03:27:44.000Z,985.55
2022-08-26T03:32:38.000Z,985.50
2022-08-26T03:37:33.000Z,985.54
2022-08-26T03:42:27.000Z,985.52
2022-08-26T03:47:21.000Z,985.47
2022-08-26T03:52:16.000Z,985.50
2022-08-26T03:57:11.000Z,985.52
2022-08-26T04:02:05.000Z,985.57
2022-08-26T04:07:00.000Z,985.56
2022-08-26T04:11:54.000Z,985.53
2022-08-26T04:16:49.000Z,985.54
2022-08-26T04:21:44.000Z,985.47
2022-08-26T04:26:38.000Z,985.47
2022-08-26T04:31:33.000Z,985.47
2022-08-26T04:36:28.000Z,985.49
2022-08-26T04:41:23.000Z,985.51
2022-08-26T04:46:18.000Z,985.51
2022-08-26T04:51:12.000Z,985.58
2022-08-26T04:56:07.000Z,985.65
2022-08-26T05:01:02.000Z,985.71
2022-08-26T05:05:56.000Z,985.70
2022-08-26T05:10:51.000Z,985.79
2022-08-26T05:15:46.000Z,985.76
2022-08-26T05:20:40.000Z,985.66
2022-08-26T05:25:35.000Z,985.64
2022-08-26T05:35:24.000Z,985.78
2022-08-26T05:45:13.000Z,985.87
2022-08-26T05:50:08.000Z,985.78
2022-08-26T05:55:03.000Z,985.92
2022-08-26T05:59:58.000Z,985.93
2022-08-26T06:04:52.000Z,986.02
2022-08-26T06:09:47.000Z,986.05
2022-08-26T06:14:42.000Z,985.98
2022-08-26T06:19:37.000Z,986.04
2022-08-26T06:24:32.000Z,986.03
2022-08-26T06:29:27.000Z,986.06
2022-08-26T06:34:22.000Z,986.12
2022-08-26T06:39:17.000Z,986.13
2022-08-26T06:44:12.000Z,986.11
2022-08-26T06:49:06.000Z,986.08
2022-08-26T06:54:03.000Z,986.24
2022-08-26T06:58:55.000Z,986.14
2022-08-26T07:03:49.000Z,986.20
2022-08-26T07:08:44.000Z,986.21
2022-08-26T07:13:39.000Z,986.15
2022-08-26T07:18:34.000Z,986.13
2022-08-26T07:23:28.000Z,986.09
2022-08-26T07:28:22.000Z,986.14
2022-08-26T07:33:17.000Z,986.11
2022-08-26T07:38:10.000Z,986.19
2022-08-26T07:43:05.000Z,986.29
2022-08-26T07:47:59.000Z,986.30
2022-08-26T07:52:54.000Z,986.34
2022-08-26T07:57:49.000Z,986.31
2022-08-26T08:02:43.000Z,986.41
2022-08-26T08:07:36.000Z,986.38
2022-08-26T08:12:31.000Z,986.32
2022-08-26T08:17:26.000Z,986.41
2022-08-26T08:22:20.000Z,986.39
2022-08-26T08:27:15.000Z,986.32
2022-08-26T08:32:10.000Z,986.35
2022-08-26T08:37:05.000Z,986.40
2022-08-26T08:42:00.000Z,986.34
2022-08-26T08:46:55.000Z,986.35
2022-08-26T08:51:50.000Z,986.34
2022-08-26T08:56:45.000Z,986.35
2022-08-26T09:01:40.000Z,986.26
2022-08-26T09:06:35.000Z,986.31
2022-08-26T09:11:29.000Z,986.28
2022-08-26T09:16:24.000Z,986.32
2022-08-26T09:21:19.000Z,986.33
2022-08-26T09:26:15.000Z,986.31
2022-08-26T09:31:10.000Z,986.21
2022-08-26T09:36:05.000Z,986.34
2022-08-26T09:41:00.000Z,986.30
2022-08-26T09:45:56.000Z,986.23
2022-08-26T09:50:51.000Z,986.28
2022-08-26T09:55:47.000Z,986.19
2022-08-26T10:00:42.000Z,986.23
2022-08-26T10:05:37.000Z,986.14
2022-08-26T10:10:33.000Z,986.15
2022-08-26T10:15:29.000Z,986.05
2022-08-26T10:20:22.000Z,986.05
2022-08-26T10:25:17.000Z,986.02
2022-08-26T10:30:12.000Z,985.93
2022-08-26T10:35:06.000Z,985.94
2022-08-26T10:40:01.000Z,985.90
2022-08-26T10:44:56.000Z,985.89
2022-08-26T10:49:51.000Z,985.86
2022-08-26T10:54:46.000Z,985.79
2022-08-26T10:59:41.000Z,985.75
2022-08-26T11:04:36.000Z,985.66
2022-08-26T11:09:31.000Z,985.70
2022-08-26T11:14:26.000Z,985.77
2022-08-26T11:19:21.000Z,985.67
2022-08-26T11:24:16.000Z,985.67
2022-08-26T11:29:10.000Z,985.68
2022-08-26T11:34:05.000Z,985.70
2022-08-26T11:38:59.000Z,985.69
2022-08-26T11:43:52.000Z,985.69
2022-08-26T11:48:48.000Z,985.68
2022-08-26T11:53:42.000Z,985.69
2022-08-26T11:58:37.000Z,985.66
2022-08-26T12:03:31.000Z,985.62
2022-08-26T12:08:25.000Z,985.62
2022-08-26T12:13:20.000Z,985.66
2022-08-26T12:18:15.000Z,985.68
2022-08-26T12:23:10.000Z,985.65
2022-08-26T12:28:05.000Z,985.56
2022-08-26T12:32:55.000Z,985.47
2022-08-26T12:37:50.000Z,985.55
2022-08-26T12:42:45.000Z,985.58
2022-08-26T12:47:40.000Z,985.66
2022-08-26T12:52:34.000Z,985.65
2022-08-26T12:57:29.000Z,985.68
2022-08-26T13:02:24.000Z,985.56
2022-08-26T13:07:19.000Z,985.59
2022-08-26T13:12:11.000Z,985.58
2022-08-26T13:17:03.000Z,985.57
2022-08-26T13:21:57.000Z,985.50
2022-08-26T13:26:52.000Z,985.58
2022-08-26T13:31:45.000Z,985.49
2022-08-26T13:36:39.000Z,985.48
2022-08-26T13:41:34.000Z,985.49
2022-08-26T13:46:29.000Z,985.48
2022-08-26T13:51:24.000Z,985.49
2022-08-26T13:56:18.000Z,985.51
2022-08-26T14:01:14.000Z,985.53
2022-08-26T14:06:08.000Z,985.41
2022-08-26T14:11:02.000Z,985.29
2022-08-26T14:15:56.000Z,985.28
2022-08-26T14:20:51.000Z,985.24
2022-08-26T14:25:46.000Z,985.36
2022-08-26T14:30:40.000Z,985.38
2022-08-26T14:35:34.000Z,985.48
2022-08-26T14:40:28.000Z,985.59
2022-08-26T14:45:22.000Z,985.35
2022-08-26T14:50:16.000Z,985.35
2022-08-26T14:55:10.000Z,985.39
2022-08-26T15:00:04.000Z,985.30
2022-08-26T15:04:59.000Z,985.18
2022-08-26T15:09:53.000Z,985.26
2022-08-26T15:14:47.000Z,985.27
2022-08-26T15:19:40.000Z,985.22
2022-08-26T15:24:35.000Z,985.27
2022-08-26T15:29:29.000Z,985.34
2022-08-26T15:34:24.000Z,985.29
2022-08-26T15:39:18.000Z,985.31
2022-08-26T15:44:15.000Z,985.37
2022-08-26T15:49:07.000Z,985.32
2022-08-26T15:58:55.000Z,985.33
2022-08-26T16:03:49.000Z,985.24
2022-08-26T16:08:44.000Z,985.27
2022-08-26T16:13:38.000Z,985.29
2022-08-26T16:18:33.000Z,985.30
2022-08-26T16:23:27.000Z,985.22
2022-08-26T16:28:22.000Z,985.24
2022-08-26T16:33:17.000Z,985.23
2022-08-26T16:38:11.000Z,985.34
2022-08-26T16:43:06.000Z,985.39
2022-08-26T16:48:00.000Z,985.44
2022-08-26T16:52:55.000Z,985.50
2022-08-26T16:57:48.000Z,985.54
2022-08-26T17:02:41.000Z,985.52
2022-08-26T17:07:36.000Z,985.69
2022-08-26T17:12:30.000Z,985.66
2022-08-26T17:17:25.000Z,985.61
2022-08-26T17:22:19.000Z,985.72
2022-08-26T17:27:14.000Z,985.71
2022-08-26T17:32:08.000Z,985.65
2022-08-26T17:37:02.000Z,985.59
2022-08-26T17:41:57.000Z,985.66
2022-08-26T17:46:51.000Z,985.58
2022-08-26T17:51:46.000Z,985.56
2022-08-26T17:56:40.000Z,985.56
2022-08-26T18:01:35.000Z,985.58
2022-08-26T18:06:29.000Z,985.56
2022-08-26T18:11:24.000Z,985.56
2022-08-26T18:16:22.000Z,985.53
2022-08-26T18:21:13.000Z,985.60
2022-08-26T18:26:05.000Z,985.62
2022-08-26T18:30:59.000Z,985.60
2022-08-26T18:35:54.000Z,985.65
2022-08-26T18:40:49.000Z,985.71
2022-08-26T18:45:45.000Z,985.74
2022-08-26T18:50:38.000Z,985.70
2022-08-26T18:55:33.000Z,985.74
2022-08-26T19:00:28.000Z,985.75
2022-08-26T19:05:23.000Z,985.76
2022-08-26T19:10:17.000Z,985.80
2022-08-26T19:15:12.000Z,985.74
2022-08-26T19:20:06.000Z,985.68
2022-08-26T19:25:00.000Z,985.77
2022-08-26T19:29:55.000Z,985.75
2022-08-26T19:34:48.000Z,985.94
2022-08-26T19:39:42.000Z,986.01
2022-08-26T19:44:36.000Z,986.05
2022-08-26T19:49:31.000Z,985.99
2022-08-26T19:54:26.000Z,986.03
2022-08-26T19:59:19.000Z,986.03
2022-08-26T20:04:13.000Z,986.09
2022-08-26T20:09:08.000Z,986.05
2022-08-26T20:14:03.000Z,986.11
2022-08-26T20:18:58.000Z,986.19
2022-08-26T20:23:52.000Z,986.18
2022-08-26T20:28:47.000Z,986.16
2022-08-26T20:33:41.000Z,986.19
2022-08-26T20:38:35.000Z,986.03
2022-08-26T20:43:31.000Z,986.11
2022-08-26T20:48:24.000Z,986.18
2022-08-26T20:53:19.000Z,986.25
2022-08-26T20:58:14.000Z,986.17
2022-08-26T21:03:08.000Z,986.14
2022-08-26T21:08:03.000Z,986.24
2022-08-26T21:12:58.000Z,986.27
2022-08-26T21:17:52.000Z,986.30
2022-08-26T21:22:47.000Z,986.25
2022-08-26T21:27:41.000Z,986.24
2022-08-26T21:32:35.000Z,986.26
2022-08-26T21:37:30.000Z,986.21
2022-08-26T21:42:25.000Z,986.31
2022-08-26T21:47:20.000Z,986.27
2022-08-26T21:52:14.000Z,986.25
2022-08-26T21:57:09.000Z,986.26
2022-08-26T22:02:04.000Z,986.33
2022-08-26T22:06:58.000Z,986.38
2022-08-26T22:11:53.000Z,986.38
2022-08-26T22:16:48.000Z,986.37
2022-08-26T22:21:42.000Z,986.38
2022-08-26T22:26:37.000Z,986.36
2022-08-26T22:31:32.000Z,986.39
2022-08-26T22:36:27.000Z,986.36
2022-08-26T22:41:21.000Z,986.40
2022-08-26T22:46:15.000Z,986.49
2022-08-26T22:51:06.000Z,986.52
2022-08-26T22:56:01.000Z,986.46
2022-08-26T23:00:56.000Z,986.46
2022-08-26T23:05:50.000Z,986.48
2022-08-26T23:10:44.000Z,986.50
2022-08-26T23:15:39.000Z,986.57
2022-08-26T23:20:34.000Z,986.53
2022-08-26T23:25:29.000Z,986.56
2022-08-26T23:30:24.000Z,986.60
2022-08-26T23:35:18.000Z,986.65
2022-08-26T23:40:13.000Z,986.64
2022-08-26T23:45:08.000Z,986.66
2022-08-26T23:50:02.000Z,986.60
2022-08-26T23:54:57.000Z,986.55
2022-08-26T23:59:52.000Z,986.55
